sensor_id;sensor_type;location;lat;lon;timestamp;temperature;humidity
25328;DHT22;13279;51.300;12.394;2024-03-06T00:01:04;4.60;99.90
25328;DHT22;13279;51.300;12.394;2024-03-06T00:03:33;4.60;99.90
25328;DHT22;13279;51.300;12.394;2024-03-06T00:06:00;4.60;99.90
25328;DHT22;13279;51.300;12.394;2024-03-06T00:08:28;4.60;99.90
25328;DHT22;13279;51.300;12.394;2024-03-06T00:10:55;4.60;99.90
25328;DHT22;13279;51.300;12.394;2024-03-06T00:13:23;4.60;99.90
25328;DHT22;13279;51.300;12.394;2024-03-06T00:15:51;4.60;99.90
25328;DHT22;13279;51.300;12.394;2024-03-06T00:18:18;4.60;99.90
25328;DHT22;13279;51.300;12.394;2024-03-06T00:20:45;4.60;99.90
25328;DHT22;13279;51.300;12.394;2024-03-06T00:23:13;4.60;99.90
25328;DHT22;13279;51.300;12.394;2024-03-06T00:25:40;4.60;99.90
25328;DHT22;13279;51.300;12.394;2024-03-06T00:28:08;4.60;99.90
25328;DHT22;13279;51.300;12.394;2024-03-06T00:30:36;4.60;99.90
25328;DHT22;13279;51.300;12.394;2024-03-06T00:33:04;4.60;99.90
25328;DHT22;13279;51.300;12.394;2024-03-06T00:35:31;4.60;99.90
25328;DHT22;13279;51.300;12.394;2024-03-06T00:37:59;4.60;99.90
25328;DHT22;13279;51.300;12.394;2024-03-06T00:40:28;4.60;99.90
25328;DHT22;13279;51.300;12.394;2024-03-06T00:42:57;4.60;99.90
25328;DHT22;13279;51.300;12.394;2024-03-06T00:45:24;4.70;99.90
25328;DHT22;13279;51.300;12.394;2024-03-06T00:47:53;4.60;99.90
25328;DHT22;13279;51.300;12.394;2024-03-06T00:50:20;4.70;99.90
25328;DHT22;13279;51.300;12.394;2024-03-06T00:52:48;4.70;99.90
25328;DHT22;13279;51.300;12.394;2024-03-06T00:55:16;4.60;99.90
25328;DHT22;13279;51.300;12.394;2024-03-06T00:57:43;4.60;99.90
25328;DHT22;13279;51.300;12.394;2024-03-06T01:00:11;4.60;99.90
25328;DHT22;13279;51.300;12.394;2024-03-06T01:02:41;4.60;99.90
25328;DHT22;13279;51.300;12.394;2024-03-06T01:05:09;4.60;99.90
25328;DHT22;13279;51.300;12.394;2024-03-06T01:07:37;4.50;99.90
25328;DHT22;13279;51.300;12.394;2024-03-06T01:10:06;4.40;99.90
25328;DHT22;13279;51.300;12.394;2024-03-06T01:12:34;4.40;99.90
25328;DHT22;13279;51.300;12.394;2024-03-06T01:15:01;4.30;99.90
25328;DHT22;13279;51.300;12.394;2024-03-06T01:17:30;4.30;99.90
25328;DHT22;13279;51.300;12.394;2024-03-06T01:19:57;4.30;99.90
25328;DHT22;13279;51.300;12.394;2024-03-06T01:22:27;4.20;99.90
25328;DHT22;13279;51.300;12.394;2024-03-06T01:24:54;4.20;99.90
25328;DHT22;13279;51.300;12.394;2024-03-06T01:27:21;4.10;99.90
25328;DHT22;13279;51.300;12.394;2024-03-06T01:29:49;4.10;99.90
25328;DHT22;13279;51.300;12.394;2024-03-06T01:32:16;4.10;99.90
25328;DHT22;13279;51.300;12.394;2024-03-06T01:34:43;4.10;99.90
25328;DHT22;13279;51.300;12.394;2024-03-06T01:37:11;4.00;99.90
25328;DHT22;13279;51.300;12.394;2024-03-06T01:39:40;3.90;99.90
25328;DHT22;13279;51.300;12.394;2024-03-06T01:42:08;3.90;99.90
25328;DHT22;13279;51.300;12.394;2024-03-06T01:44:35;3.90;99.90
25328;DHT22;13279;51.300;12.394;2024-03-06T01:47:03;3.80;99.90
25328;DHT22;13279;51.300;12.394;2024-03-06T01:49:31;3.80;99.90
25328;DHT22;13279;51.300;12.394;2024-03-06T01:51:59;3.70;99.90
25328;DHT22;13279;51.300;12.394;2024-03-06T01:54:28;3.70;99.90
25328;DHT22;13279;51.300;12.394;2024-03-06T01:56:58;3.70;99.90
25328;DHT22;13279;51.300;12.394;2024-03-06T01:59:26;3.60;99.90
25328;DHT22;13279;51.300;12.394;2024-03-06T02:01:54;3.60;99.90
25328;DHT22;13279;51.300;12.394;2024-03-06T02:04:23;3.60;99.90
25328;DHT22;13279;51.300;12.394;2024-03-06T02:06:52;3.60;99.90
25328;DHT22;13279;51.300;12.394;2024-03-06T02:09:23;3.50;99.90
25328;DHT22;13279;51.300;12.394;2024-03-06T02:11:51;3.50;99.90
25328;DHT22;13279;51.300;12.394;2024-03-06T02:14:19;3.50;99.90
25328;DHT22;13279;51.300;12.394;2024-03-06T02:16:47;3.40;99.90
25328;DHT22;13279;51.300;12.394;2024-03-06T02:19:14;3.40;99.90
25328;DHT22;13279;51.300;12.394;2024-03-06T02:21:43;3.40;99.90
25328;DHT22;13279;51.300;12.394;2024-03-06T02:24:12;3.40;99.90
25328;DHT22;13279;51.300;12.394;2024-03-06T02:26:40;3.30;99.90
25328;DHT22;13279;51.300;12.394;2024-03-06T02:29:09;3.30;99.90
25328;DHT22;13279;51.300;12.394;2024-03-06T02:31:36;3.30;99.90
25328;DHT22;13279;51.300;12.394;2024-03-06T02:34:05;3.30;99.90
25328;DHT22;13279;51.300;12.394;2024-03-06T02:36:32;3.30;99.90
25328;DHT22;13279;51.300;12.394;2024-03-06T02:39:01;3.20;99.90
25328;DHT22;13279;51.300;12.394;2024-03-06T02:41:35;3.30;99.90
25328;DHT22;13279;51.300;12.394;2024-03-06T02:44:03;3.20;99.90
25328;DHT22;13279;51.300;12.394;2024-03-06T02:46:30;3.20;99.90
25328;DHT22;13279;51.300;12.394;2024-03-06T02:48:57;3.20;99.90
25328;DHT22;13279;51.300;12.394;2024-03-06T02:51:25;3.20;99.90
25328;DHT22;13279;51.300;12.394;2024-03-06T02:53:52;3.20;99.90
25328;DHT22;13279;51.300;12.394;2024-03-06T02:56:21;3.10;99.90
25328;DHT22;13279;51.300;12.394;2024-03-06T02:58:49;3.10;99.90
25328;DHT22;13279;51.300;12.394;2024-03-06T03:01:16;3.10;99.90
25328;DHT22;13279;51.300;12.394;2024-03-06T03:03:43;3.00;99.90
25328;DHT22;13279;51.300;12.394;2024-03-06T03:06:13;3.00;99.90
25328;DHT22;13279;51.300;12.394;2024-03-06T03:08:40;3.00;99.90
25328;DHT22;13279;51.300;12.394;2024-03-06T03:11:08;2.90;99.90
25328;DHT22;13279;51.300;12.394;2024-03-06T03:13:37;2.90;99.90
25328;DHT22;13279;51.300;12.394;2024-03-06T03:16:06;2.80;99.90
25328;DHT22;13279;51.300;12.394;2024-03-06T03:18:33;2.80;99.90
25328;DHT22;13279;51.300;12.394;2024-03-06T03:21:00;2.80;99.90
25328;DHT22;13279;51.300;12.394;2024-03-06T03:23:28;2.80;99.90
25328;DHT22;13279;51.300;12.394;2024-03-06T03:25:55;2.70;99.90
25328;DHT22;13279;51.300;12.394;2024-03-06T03:28:22;2.70;99.90
25328;DHT22;13279;51.300;12.394;2024-03-06T03:30:52;2.70;99.90
25328;DHT22;13279;51.300;12.394;2024-03-06T03:33:19;2.70;99.90
25328;DHT22;13279;51.300;12.394;2024-03-06T03:35:46;2.70;99.90
25328;DHT22;13279;51.300;12.394;2024-03-06T03:38:14;2.70;99.90
25328;DHT22;13279;51.300;12.394;2024-03-06T03:40:42;2.60;99.90
25328;DHT22;13279;51.300;12.394;2024-03-06T03:43:09;2.60;99.90
25328;DHT22;13279;51.300;12.394;2024-03-06T03:45:37;2.60;99.90
25328;DHT22;13279;51.300;12.394;2024-03-06T03:48:06;2.60;99.90
25328;DHT22;13279;51.300;12.394;2024-03-06T03:50:34;2.60;99.90
25328;DHT22;13279;51.300;12.394;2024-03-06T03:53:01;2.50;99.90
25328;DHT22;13279;51.300;12.394;2024-03-06T03:55:29;2.50;99.90
25328;DHT22;13279;51.300;12.394;2024-03-06T03:57:57;2.50;99.90
25328;DHT22;13279;51.300;12.394;2024-03-06T04:00:24;2.50;99.90
25328;DHT22;13279;51.300;12.394;2024-03-06T04:02:52;2.50;99.90
25328;DHT22;13279;51.300;12.394;2024-03-06T04:05:21;2.40;99.90
25328;DHT22;13279;51.300;12.394;2024-03-06T04:07:49;2.40;99.90
25328;DHT22;13279;51.300;12.394;2024-03-06T04:10:17;2.40;99.90
25328;DHT22;13279;51.300;12.394;2024-03-06T04:12:44;2.40;99.90
25328;DHT22;13279;51.300;12.394;2024-03-06T04:15:11;2.40;99.90
25328;DHT22;13279;51.300;12.394;2024-03-06T04:17:38;2.40;99.90
25328;DHT22;13279;51.300;12.394;2024-03-06T04:20:07;2.30;99.90
25328;DHT22;13279;51.300;12.394;2024-03-06T04:22:39;2.30;99.90
25328;DHT22;13279;51.300;12.394;2024-03-06T04:25:08;2.30;99.90
25328;DHT22;13279;51.300;12.394;2024-03-06T04:27:35;2.30;99.90
25328;DHT22;13279;51.300;12.394;2024-03-06T04:30:03;2.30;99.90
25328;DHT22;13279;51.300;12.394;2024-03-06T04:32:31;2.20;99.90
25328;DHT22;13279;51.300;12.394;2024-03-06T04:34:59;2.20;99.90
25328;DHT22;13279;51.300;12.394;2024-03-06T04:37:26;2.20;99.90
25328;DHT22;13279;51.300;12.394;2024-03-06T04:39:56;2.20;99.90
25328;DHT22;13279;51.300;12.394;2024-03-06T04:42:24;2.20;99.90
25328;DHT22;13279;51.300;12.394;2024-03-06T04:44:51;2.10;99.90
25328;DHT22;13279;51.300;12.394;2024-03-06T04:47:19;2.10;99.90
25328;DHT22;13279;51.300;12.394;2024-03-06T04:49:47;2.10;99.90
25328;DHT22;13279;51.300;12.394;2024-03-06T04:52:16;2.10;99.90
25328;DHT22;13279;51.300;12.394;2024-03-06T04:54:43;2.10;99.90
25328;DHT22;13279;51.300;12.394;2024-03-06T04:57:12;2.10;99.90
25328;DHT22;13279;51.300;12.394;2024-03-06T04:59:40;2.10;99.90
25328;DHT22;13279;51.300;12.394;2024-03-06T05:02:07;2.10;99.90
25328;DHT22;13279;51.300;12.394;2024-03-06T05:04:35;2.10;99.90
25328;DHT22;13279;51.300;12.394;2024-03-06T05:07:03;2.10;99.90
25328;DHT22;13279;51.300;12.394;2024-03-06T05:09:31;2.10;99.90
25328;DHT22;13279;51.300;12.394;2024-03-06T05:11:58;2.10;99.90
25328;DHT22;13279;51.300;12.394;2024-03-06T05:14:27;2.00;99.90
25328;DHT22;13279;51.300;12.394;2024-03-06T05:16:55;2.00;99.90
25328;DHT22;13279;51.300;12.394;2024-03-06T05:19:22;2.00;99.90
25328;DHT22;13279;51.300;12.394;2024-03-06T05:21:50;2.00;99.90
25328;DHT22;13279;51.300;12.394;2024-03-06T05:24:18;1.90;99.90
25328;DHT22;13279;51.300;12.394;2024-03-06T05:26:46;1.90;99.90
25328;DHT22;13279;51.300;12.394;2024-03-06T05:29:13;1.90;99.90
25328;DHT22;13279;51.300;12.394;2024-03-06T05:31:43;1.90;99.90
25328;DHT22;13279;51.300;12.394;2024-03-06T05:34:10;1.90;99.90
25328;DHT22;13279;51.300;12.394;2024-03-06T05:36:38;1.80;99.90
25328;DHT22;13279;51.300;12.394;2024-03-06T05:39:05;1.80;99.90
25328;DHT22;13279;51.300;12.394;2024-03-06T05:41:32;1.80;99.90
25328;DHT22;13279;51.300;12.394;2024-03-06T05:44:00;1.80;99.90
25328;DHT22;13279;51.300;12.394;2024-03-06T05:46:27;1.80;99.90
25328;DHT22;13279;51.300;12.394;2024-03-06T05:48:56;1.80;99.90
25328;DHT22;13279;51.300;12.394;2024-03-06T05:51:24;1.80;99.90
25328;DHT22;13279;51.300;12.394;2024-03-06T05:53:51;1.80;99.90
25328;DHT22;13279;51.300;12.394;2024-03-06T05:56:19;1.80;99.90
25328;DHT22;13279;51.300;12.394;2024-03-06T05:58:46;1.70;99.90
25328;DHT22;13279;51.300;12.394;2024-03-06T06:01:15;1.80;99.90
25328;DHT22;13279;51.300;12.394;2024-03-06T06:03:45;1.70;99.90
25328;DHT22;13279;51.300;12.394;2024-03-06T06:06:16;1.70;99.90
25328;DHT22;13279;51.300;12.394;2024-03-06T06:08:45;1.70;99.90
25328;DHT22;13279;51.300;12.394;2024-03-06T06:11:12;1.80;99.90
25328;DHT22;13279;51.300;12.394;2024-03-06T06:13:40;1.70;99.90
25328;DHT22;13279;51.300;12.394;2024-03-06T06:16:07;1.70;99.90
25328;DHT22;13279;51.300;12.394;2024-03-06T06:18:35;1.70;99.90
25328;DHT22;13279;51.300;12.394;2024-03-06T06:21:03;1.70;99.90
25328;DHT22;13279;51.300;12.394;2024-03-06T06:23:35;1.70;99.90
25328;DHT22;13279;51.300;12.394;2024-03-06T06:26:02;1.80;99.90
25328;DHT22;13279;51.300;12.394;2024-03-06T06:28:30;1.80;99.90
25328;DHT22;13279;51.300;12.394;2024-03-06T06:30:58;1.80;99.90
25328;DHT22;13279;51.300;12.394;2024-03-06T06:33:25;1.80;99.90
25328;DHT22;13279;51.300;12.394;2024-03-06T06:35:52;1.80;99.90
25328;DHT22;13279;51.300;12.394;2024-03-06T06:38:20;1.80;99.90
25328;DHT22;13279;51.300;12.394;2024-03-06T06:40:48;1.80;99.90
25328;DHT22;13279;51.300;12.394;2024-03-06T06:43:16;1.80;99.90
25328;DHT22;13279;51.300;12.394;2024-03-06T06:45:44;1.80;99.90
25328;DHT22;13279;51.300;12.394;2024-03-06T06:48:12;1.90;99.90
25328;DHT22;13279;51.300;12.394;2024-03-06T06:50:39;1.90;99.90
25328;DHT22;13279;51.300;12.394;2024-03-06T06:53:06;1.90;99.90
25328;DHT22;13279;51.300;12.394;2024-03-06T06:55:34;1.90;99.90
25328;DHT22;13279;51.300;12.394;2024-03-06T06:58:03;1.90;99.90
25328;DHT22;13279;51.300;12.394;2024-03-06T07:00:31;2.00;99.90
25328;DHT22;13279;51.300;12.394;2024-03-06T07:02:59;2.00;99.90
25328;DHT22;13279;51.300;12.394;2024-03-06T07:05:27;2.00;99.90
25328;DHT22;13279;51.300;12.394;2024-03-06T07:07:54;2.10;99.90
25328;DHT22;13279;51.300;12.394;2024-03-06T07:10:22;2.10;99.90
25328;DHT22;13279;51.300;12.394;2024-03-06T07:12:49;2.10;99.90
25328;DHT22;13279;51.300;12.394;2024-03-06T07:15:18;2.10;99.90
25328;DHT22;13279;51.300;12.394;2024-03-06T07:17:45;2.20;99.90
25328;DHT22;13279;51.300;12.394;2024-03-06T07:20:12;2.20;99.90
25328;DHT22;13279;51.300;12.394;2024-03-06T07:22:40;2.20;99.90
25328;DHT22;13279;51.300;12.394;2024-03-06T07:25:08;2.30;99.90
25328;DHT22;13279;51.300;12.394;2024-03-06T07:27:36;2.40;99.90
25328;DHT22;13279;51.300;12.394;2024-03-06T07:30:06;2.50;99.90
25328;DHT22;13279;51.300;12.394;2024-03-06T07:32:35;2.60;99.90
25328;DHT22;13279;51.300;12.394;2024-03-06T07:35:04;2.70;99.90
25328;DHT22;13279;51.300;12.394;2024-03-06T07:37:32;3.00;99.90
25328;DHT22;13279;51.300;12.394;2024-03-06T07:40:00;3.10;99.90
25328;DHT22;13279;51.300;12.394;2024-03-06T07:42:29;3.30;99.90
25328;DHT22;13279;51.300;12.394;2024-03-06T07:44:59;3.40;99.90
25328;DHT22;13279;51.300;12.394;2024-03-06T07:47:27;3.60;99.90
25328;DHT22;13279;51.300;12.394;2024-03-06T07:49:56;3.60;99.90
25328;DHT22;13279;51.300;12.394;2024-03-06T07:52:24;3.70;99.90
25328;DHT22;13279;51.300;12.394;2024-03-06T07:54:51;3.80;99.90
25328;DHT22;13279;51.300;12.394;2024-03-06T07:57:18;3.90;99.90
25328;DHT22;13279;51.300;12.394;2024-03-06T07:59:47;4.00;99.90
25328;DHT22;13279;51.300;12.394;2024-03-06T08:02:15;4.10;99.90
25328;DHT22;13279;51.300;12.394;2024-03-06T08:04:43;4.20;99.90
25328;DHT22;13279;51.300;12.394;2024-03-06T08:07:11;4.30;99.90
25328;DHT22;13279;51.300;12.394;2024-03-06T08:09:39;4.40;99.90
25328;DHT22;13279;51.300;12.394;2024-03-06T08:12:07;4.60;99.90
25328;DHT22;13279;51.300;12.394;2024-03-06T08:14:34;4.80;99.90
25328;DHT22;13279;51.300;12.394;2024-03-06T08:17:01;4.90;99.90
25328;DHT22;13279;51.300;12.394;2024-03-06T08:19:29;5.10;99.90
25328;DHT22;13279;51.300;12.394;2024-03-06T08:21:56;5.30;99.90
25328;DHT22;13279;51.300;12.394;2024-03-06T08:24:25;5.40;99.90
25328;DHT22;13279;51.300;12.394;2024-03-06T08:26:52;5.30;99.90
25328;DHT22;13279;51.300;12.394;2024-03-06T08:29:19;5.40;99.90
25328;DHT22;13279;51.300;12.394;2024-03-06T08:31:46;5.40;99.90
25328;DHT22;13279;51.300;12.394;2024-03-06T08:34:14;5.40;99.90
25328;DHT22;13279;51.300;12.394;2024-03-06T08:36:42;5.60;99.90
25328;DHT22;13279;51.300;12.394;2024-03-06T08:39:10;5.70;99.90
25328;DHT22;13279;51.300;12.394;2024-03-06T08:41:41;5.70;99.90
25328;DHT22;13279;51.300;12.394;2024-03-06T08:44:09;5.70;99.90
25328;DHT22;13279;51.300;12.394;2024-03-06T08:46:36;5.80;99.90
25328;DHT22;13279;51.300;12.394;2024-03-06T08:49:03;5.70;99.90
25328;DHT22;13279;51.300;12.394;2024-03-06T08:51:31;5.80;99.90
25328;DHT22;13279;51.300;12.394;2024-03-06T08:53:58;5.80;99.90
25328;DHT22;13279;51.300;12.394;2024-03-06T08:56:26;5.90;99.90
25328;DHT22;13279;51.300;12.394;2024-03-06T08:58:55;5.80;99.90
25328;DHT22;13279;51.300;12.394;2024-03-06T09:01:22;5.90;99.90
25328;DHT22;13279;51.300;12.394;2024-03-06T09:03:49;6.10;99.90
25328;DHT22;13279;51.300;12.394;2024-03-06T09:06:16;6.30;99.90
25328;DHT22;13279;51.300;12.394;2024-03-06T09:08:43;6.40;99.90
25328;DHT22;13279;51.300;12.394;2024-03-06T09:11:10;6.50;99.90
25328;DHT22;13279;51.300;12.394;2024-03-06T09:13:38;6.50;99.90
25328;DHT22;13279;51.300;12.394;2024-03-06T09:16:07;6.70;99.90
25328;DHT22;13279;51.300;12.394;2024-03-06T09:18:34;6.80;99.90
25328;DHT22;13279;51.300;12.394;2024-03-06T09:21:02;6.80;99.90
25328;DHT22;13279;51.300;12.394;2024-03-06T09:23:29;6.90;99.90
25328;DHT22;13279;51.300;12.394;2024-03-06T09:25:58;7.00;99.90
25328;DHT22;13279;51.300;12.394;2024-03-06T09:28:25;7.10;99.90
25328;DHT22;13279;51.300;12.394;2024-03-06T09:30:53;6.90;99.90
25328;DHT22;13279;51.300;12.394;2024-03-06T09:33:22;6.90;99.90
25328;DHT22;13279;51.300;12.394;2024-03-06T09:35:50;6.80;99.90
25328;DHT22;13279;51.300;12.394;2024-03-06T09:38:17;6.80;99.90
25328;DHT22;13279;51.300;12.394;2024-03-06T09:40:44;7.10;99.90
25328;DHT22;13279;51.300;12.394;2024-03-06T09:43:12;7.30;99.90
25328;DHT22;13279;51.300;12.394;2024-03-06T09:45:40;7.30;99.90
25328;DHT22;13279;51.300;12.394;2024-03-06T09:48:09;7.40;99.90
25328;DHT22;13279;51.300;12.394;2024-03-06T09:50:39;7.30;99.90
25328;DHT22;13279;51.300;12.394;2024-03-06T09:53:12;7.50;99.90
25328;DHT22;13279;51.300;12.394;2024-03-06T09:55:42;7.70;99.90
25328;DHT22;13279;51.300;12.394;2024-03-06T09:58:10;8.10;99.90
25328;DHT22;13279;51.300;12.394;2024-03-06T10:00:38;8.50;99.90
25328;DHT22;13279;51.300;12.394;2024-03-06T10:03:06;8.60;99.90
25328;DHT22;13279;51.300;12.394;2024-03-06T10:05:35;8.40;99.90
25328;DHT22;13279;51.300;12.394;2024-03-06T10:08:04;8.40;99.90
25328;DHT22;13279;51.300;12.394;2024-03-06T10:10:32;8.30;99.90
25328;DHT22;13279;51.300;12.394;2024-03-06T10:12:59;8.20;99.90
25328;DHT22;13279;51.300;12.394;2024-03-06T10:15:27;8.20;99.90
25328;DHT22;13279;51.300;12.394;2024-03-06T10:18:10;8.20;99.90
25328;DHT22;13279;51.300;12.394;2024-03-06T10:20:37;8.40;99.90
25328;DHT22;13279;51.300;12.394;2024-03-06T10:23:07;8.50;99.90
25328;DHT22;13279;51.300;12.394;2024-03-06T10:25:35;8.50;99.90
25328;DHT22;13279;51.300;12.394;2024-03-06T10:28:06;8.50;99.90
25328;DHT22;13279;51.300;12.394;2024-03-06T10:30:35;8.50;99.90
25328;DHT22;13279;51.300;12.394;2024-03-06T10:33:03;8.70;99.90
25328;DHT22;13279;51.300;12.394;2024-03-06T10:35:31;9.00;99.90
25328;DHT22;13279;51.300;12.394;2024-03-06T10:38:00;8.90;99.90
25328;DHT22;13279;51.300;12.394;2024-03-06T10:40:31;8.80;99.90
25328;DHT22;13279;51.300;12.394;2024-03-06T10:42:59;9.00;99.90
25328;DHT22;13279;51.300;12.394;2024-03-06T10:45:42;9.20;99.90
25328;DHT22;13279;51.300;12.394;2024-03-06T10:48:14;9.40;99.90
25328;DHT22;13279;51.300;12.394;2024-03-06T10:50:43;9.50;99.90
25328;DHT22;13279;51.300;12.394;2024-03-06T10:53:12;9.50;99.90
25328;DHT22;13279;51.300;12.394;2024-03-06T10:55:43;9.40;99.90
25328;DHT22;13279;51.300;12.394;2024-03-06T10:58:11;9.70;99.90
25328;DHT22;13279;51.300;12.394;2024-03-06T11:00:40;9.90;99.90
25328;DHT22;13279;51.300;12.394;2024-03-06T11:03:09;9.80;99.90
25328;DHT22;13279;51.300;12.394;2024-03-06T11:05:38;9.90;99.90
25328;DHT22;13279;51.300;12.394;2024-03-06T11:08:08;9.80;99.90
25328;DHT22;13279;51.300;12.394;2024-03-06T11:10:37;9.70;99.90
25328;DHT22;13279;51.300;12.394;2024-03-06T11:13:21;10.00;99.90
25328;DHT22;13279;51.300;12.394;2024-03-06T11:15:50;10.20;99.90
25328;DHT22;13279;51.300;12.394;2024-03-06T11:18:42;10.60;99.90
25328;DHT22;13279;51.300;12.394;2024-03-06T11:21:29;10.90;99.90
25328;DHT22;13279;51.300;12.394;2024-03-06T11:24:13;11.10;99.90
25328;DHT22;13279;51.300;12.394;2024-03-06T11:26:42;10.80;99.90
25328;DHT22;13279;51.300;12.394;2024-03-06T11:29:12;10.60;99.90
25328;DHT22;13279;51.300;12.394;2024-03-06T11:31:39;10.00;99.90
25328;DHT22;13279;51.300;12.394;2024-03-06T11:34:23;9.90;99.90
25328;DHT22;13279;51.300;12.394;2024-03-06T11:36:53;10.00;99.90
25328;DHT22;13279;51.300;12.394;2024-03-06T11:39:21;10.10;99.90
25328;DHT22;13279;51.300;12.394;2024-03-06T11:41:49;9.80;99.90
25328;DHT22;13279;51.300;12.394;2024-03-06T11:44:20;9.60;99.90
25328;DHT22;13279;51.300;12.394;2024-03-06T11:46:56;9.30;99.90
25328;DHT22;13279;51.300;12.394;2024-03-06T11:49:25;9.30;99.90
25328;DHT22;13279;51.300;12.394;2024-03-06T11:51:56;9.50;99.90
25328;DHT22;13279;51.300;12.394;2024-03-06T11:54:24;9.90;99.90
25328;DHT22;13279;51.300;12.394;2024-03-06T11:56:54;9.80;99.90
25328;DHT22;13279;51.300;12.394;2024-03-06T11:59:23;9.70;99.90
25328;DHT22;13279;51.300;12.394;2024-03-06T12:01:51;9.80;99.90
25328;DHT22;13279;51.300;12.394;2024-03-06T12:04:19;10.00;99.90
25328;DHT22;13279;51.300;12.394;2024-03-06T12:06:48;10.20;99.90
25328;DHT22;13279;51.300;12.394;2024-03-06T12:09:16;9.90;99.90
25328;DHT22;13279;51.300;12.394;2024-03-06T12:11:44;9.50;99.90
25328;DHT22;13279;51.300;12.394;2024-03-06T12:14:15;9.10;99.90
25328;DHT22;13279;51.300;12.394;2024-03-06T12:16:54;9.30;99.90
25328;DHT22;13279;51.300;12.394;2024-03-06T12:19:23;9.70;99.90
25328;DHT22;13279;51.300;12.394;2024-03-06T12:21:50;9.90;99.90
25328;DHT22;13279;51.300;12.394;2024-03-06T12:24:20;10.20;99.90
25328;DHT22;13279;51.300;12.394;2024-03-06T12:26:59;10.50;99.90
25328;DHT22;13279;51.300;12.394;2024-03-06T12:29:28;10.30;99.90
25328;DHT22;13279;51.300;12.394;2024-03-06T12:31:58;10.40;99.90
25328;DHT22;13279;51.300;12.394;2024-03-06T12:34:26;10.40;99.90
25328;DHT22;13279;51.300;12.394;2024-03-06T12:36:53;10.60;99.90
25328;DHT22;13279;51.300;12.394;2024-03-06T12:39:20;10.80;99.90
25328;DHT22;13279;51.300;12.394;2024-03-06T12:41:49;11.10;99.90
25328;DHT22;13279;51.300;12.394;2024-03-06T12:44:18;11.10;99.90
25328;DHT22;13279;51.300;12.394;2024-03-06T12:46:46;11.40;99.90
25328;DHT22;13279;51.300;12.394;2024-03-06T12:49:16;11.50;99.90
25328;DHT22;13279;51.300;12.394;2024-03-06T12:51:44;11.10;99.90
25328;DHT22;13279;51.300;12.394;2024-03-06T12:54:12;10.70;99.90
25328;DHT22;13279;51.300;12.394;2024-03-06T12:56:39;10.50;99.90
25328;DHT22;13279;51.300;12.394;2024-03-06T12:59:07;10.50;99.90
25328;DHT22;13279;51.300;12.394;2024-03-06T13:01:35;10.60;99.90
25328;DHT22;13279;51.300;12.394;2024-03-06T13:04:02;10.80;99.90
25328;DHT22;13279;51.300;12.394;2024-03-06T13:06:31;11.00;99.90
25328;DHT22;13279;51.300;12.394;2024-03-06T13:08:59;10.80;99.90
25328;DHT22;13279;51.300;12.394;2024-03-06T13:11:27;10.60;99.90
25328;DHT22;13279;51.300;12.394;2024-03-06T13:13:54;10.30;99.90
25328;DHT22;13279;51.300;12.394;2024-03-06T13:16:21;9.90;99.90
25328;DHT22;13279;51.300;12.394;2024-03-06T13:18:48;9.60;99.90
25328;DHT22;13279;51.300;12.394;2024-03-06T13:21:18;9.50;99.90
25328;DHT22;13279;51.300;12.394;2024-03-06T13:23:47;9.60;99.90
25328;DHT22;13279;51.300;12.394;2024-03-06T13:26:15;9.90;99.90
25328;DHT22;13279;51.300;12.394;2024-03-06T13:28:43;10.20;99.90
25328;DHT22;13279;51.300;12.394;2024-03-06T13:31:12;10.80;99.90
25328;DHT22;13279;51.300;12.394;2024-03-06T13:33:39;11.00;99.90
25328;DHT22;13279;51.300;12.394;2024-03-06T13:36:07;10.70;99.90
25328;DHT22;13279;51.300;12.394;2024-03-06T13:38:35;10.20;99.90
25328;DHT22;13279;51.300;12.394;2024-03-06T13:41:04;9.80;99.90
25328;DHT22;13279;51.300;12.394;2024-03-06T13:43:32;9.40;99.90
25328;DHT22;13279;51.300;12.394;2024-03-06T13:45:59;9.40;99.90
25328;DHT22;13279;51.300;12.394;2024-03-06T13:48:26;9.50;99.90
25328;DHT22;13279;51.300;12.394;2024-03-06T13:50:54;9.80;99.90
25328;DHT22;13279;51.300;12.394;2024-03-06T13:53:21;10.20;99.90
25328;DHT22;13279;51.300;12.394;2024-03-06T13:55:48;10.70;99.90
25328;DHT22;13279;51.300;12.394;2024-03-06T13:58:17;11.10;99.90
25328;DHT22;13279;51.300;12.394;2024-03-06T14:00:45;11.40;99.90
25328;DHT22;13279;51.300;12.394;2024-03-06T14:03:12;11.10;99.90
25328;DHT22;13279;51.300;12.394;2024-03-06T14:05:43;10.20;99.90
25328;DHT22;13279;51.300;12.394;2024-03-06T14:08:11;10.00;99.90
25328;DHT22;13279;51.300;12.394;2024-03-06T14:10:39;9.70;99.90
25328;DHT22;13279;51.300;12.394;2024-03-06T14:13:07;9.80;99.90
25328;DHT22;13279;51.300;12.394;2024-03-06T14:15:35;10.10;99.90
25328;DHT22;13279;51.300;12.394;2024-03-06T14:18:03;10.50;99.90
25328;DHT22;13279;51.300;12.394;2024-03-06T14:20:32;10.60;99.90
25328;DHT22;13279;51.300;12.394;2024-03-06T14:22:59;10.80;99.90
25328;DHT22;13279;51.300;12.394;2024-03-06T14:25:26;10.70;99.90
25328;DHT22;13279;51.300;12.394;2024-03-06T14:27:55;10.90;99.90
25328;DHT22;13279;51.300;12.394;2024-03-06T14:30:23;11.00;99.90
25328;DHT22;13279;51.300;12.394;2024-03-06T14:32:52;11.20;99.90
25328;DHT22;13279;51.300;12.394;2024-03-06T14:35:19;11.40;99.90
25328;DHT22;13279;51.300;12.394;2024-03-06T14:37:47;12.00;99.90
25328;DHT22;13279;51.300;12.394;2024-03-06T14:40:15;12.40;99.90
25328;DHT22;13279;51.300;12.394;2024-03-06T14:42:42;12.60;99.90
25328;DHT22;13279;51.300;12.394;2024-03-06T14:45:09;12.50;99.90
25328;DHT22;13279;51.300;12.394;2024-03-06T14:47:37;12.30;99.90
25328;DHT22;13279;51.300;12.394;2024-03-06T14:50:07;11.90;99.90
25328;DHT22;13279;51.300;12.394;2024-03-06T14:52:34;12.40;99.90
25328;DHT22;13279;51.300;12.394;2024-03-06T14:55:02;13.00;99.90
25328;DHT22;13279;51.300;12.394;2024-03-06T14:57:30;13.00;99.90
25328;DHT22;13279;51.300;12.394;2024-03-06T14:59:58;13.30;99.90
25328;DHT22;13279;51.300;12.394;2024-03-06T15:02:25;12.70;99.90
25328;DHT22;13279;51.300;12.394;2024-03-06T15:04:53;12.70;99.90
25328;DHT22;13279;51.300;12.394;2024-03-06T15:07:22;12.40;99.90
25328;DHT22;13279;51.300;12.394;2024-03-06T15:09:49;12.20;99.90
25328;DHT22;13279;51.300;12.394;2024-03-06T15:12:17;12.30;99.90
25328;DHT22;13279;51.300;12.394;2024-03-06T15:14:44;12.10;99.90
25328;DHT22;13279;51.300;12.394;2024-03-06T15:17:11;12.20;99.90
25328;DHT22;13279;51.300;12.394;2024-03-06T15:19:38;12.30;99.90
25328;DHT22;13279;51.300;12.394;2024-03-06T15:22:06;12.10;99.90
25328;DHT22;13279;51.300;12.394;2024-03-06T15:24:35;12.10;99.90
25328;DHT22;13279;51.300;12.394;2024-03-06T15:27:03;12.10;99.90
25328;DHT22;13279;51.300;12.394;2024-03-06T15:29:30;12.10;99.90
25328;DHT22;13279;51.300;12.394;2024-03-06T15:31:57;12.50;99.90
25328;DHT22;13279;51.300;12.394;2024-03-06T15:34:25;12.80;99.90